Indian Wells, California
Current Conditions -  °F | °C
As of 2:52 PM on Tuesday 21 Oct 2014 (Local Time) from KTRM Reporting Station
Clear Clear  
Wind Chill: 93°   Ceiling: Unl
Heat Index: 93°   Visibility: 10mi
Dew Point: 49°   Wind: 6mph
Humidity: 22%   Direction: NA
Pressure: 29.71"   Gusts: NA
Location:  33.72°N, 116.31°W
Report Text: KTRM 212152Z AUTO VRB05KT 10SM CLR 34/09 A2971 RMK AO2 SLP062 T03390094 TSNO
Loading
Personal Weather Stations






























Interactive Weather Map
Tropical Storm Tracking
New forecast layout! Learn more

10-Day Weather Forecast

Advertisements
Track Severe Weather on mobile